createdAt,value
2023-01-11T00:01:01.013Z,82.33
2023-01-11T00:03:30.190Z,82.94
2023-01-11T00:05:58.861Z,84.03
2023-01-11T00:08:28.337Z,84.04
2023-01-11T00:10:56.331Z,84.33
2023-01-11T00:13:24.272Z,84.26
2023-01-11T00:15:52.158Z,83.74
2023-01-11T00:18:20.699Z,83.96
2023-01-11T00:20:48.627Z,84.02
2023-01-11T00:23:16.618Z,84.24
2023-01-11T00:25:44.527Z,84.09
2023-01-11T00:28:12.439Z,84.61
2023-01-11T00:30:40.398Z,86.81
2023-01-11T00:33:11.396Z,86.20
2023-01-11T00:35:39.332Z,86.14
2023-01-11T00:38:07.686Z,85.16
2023-01-11T00:40:35.460Z,85.23
2023-01-11T00:43:22.648Z,85.76
2023-01-11T00:46:19.624Z,85.27
2023-01-11T00:48:47.574Z,85.71
2023-01-11T00:51:15.504Z,85.96
2023-01-11T00:53:43.576Z,85.28
2023-01-11T00:56:11.569Z,85.51
2023-01-11T00:58:39.427Z,84.80
2023-01-11T01:01:08.479Z,84.98
2023-01-11T01:03:36.648Z,85.74
2023-01-11T01:06:04.609Z,85.91
2023-01-11T01:08:32.796Z,86.05
2023-01-11T01:11:00.577Z,85.88
2023-01-11T01:13:46.840Z,85.63
2023-01-11T01:16:15.015Z,85.62
2023-01-11T01:18:42.898Z,85.31
2023-01-11T01:21:10.921Z,84.61
2023-01-11T01:23:38.840Z,85.13
2023-01-11T01:26:07.458Z,85.77
2023-01-11T01:28:35.384Z,86.13
2023-01-11T01:31:03.384Z,86.02
2023-01-11T01:33:31.452Z,84.81
2023-01-11T01:36:01.698Z,85.24
2023-01-11T01:38:30.313Z,85.56
2023-01-11T01:40:58.216Z,85.56
2023-01-11T01:44:06.513Z,85.75
2023-01-11T01:46:34.596Z,86.19
2023-01-11T01:49:12.973Z,85.83
2023-01-11T01:51:49.735Z,86.68
2023-01-11T01:54:27.529Z,86.63
2023-01-11T01:57:13.922Z,86.18
2023-01-11T01:59:42.339Z,85.79
2023-01-11T02:02:12.042Z,85.92
2023-01-11T02:04:44.385Z,86.48
2023-01-11T02:07:19.760Z,86.34
2023-01-11T02:10:11.109Z,86.18
2023-01-11T02:12:45.051Z,87.00
2023-01-11T02:15:14.325Z,87.39
2023-01-11T02:17:42.203Z,86.95
2023-01-11T02:20:31.497Z,86.93
2023-01-11T02:23:36.750Z,87.07
2023-01-11T02:26:39.358Z,87.57
2023-01-11T02:29:26.989Z,87.11
2023-01-11T02:32:06.494Z,86.93
2023-01-11T02:34:38.102Z,86.39
2023-01-11T02:37:31.631Z,86.47
2023-01-11T02:40:17.234Z,87.15
2023-01-11T02:43:13.545Z,88.83
2023-01-11T02:45:59.875Z,88.78
2023-01-11T02:48:59.343Z,88.91
2023-01-11T02:51:43.593Z,88.50
2023-01-11T02:54:13.953Z,88.55
2023-01-11T02:59:38.235Z,88.71
2023-01-11T03:02:06.497Z,87.93
2023-01-11T03:04:38.052Z,87.55
2023-01-11T03:07:15.875Z,88.16
2023-01-11T03:09:46.666Z,87.53
2023-01-11T03:12:52.552Z,86.84
2023-01-11T03:15:40.018Z,86.16
2023-01-11T03:18:35.045Z,86.02
2023-01-11T03:21:09.184Z,85.44
2023-01-11T03:23:49.087Z,85.72
2023-01-11T03:26:16.858Z,85.51
2023-01-11T03:28:44.733Z,85.60
2023-01-11T03:31:21.900Z,85.60
2023-01-11T03:34:29.826Z,85.67
2023-01-11T03:37:03.753Z,85.48
2023-01-11T03:40:04.155Z,85.03
2023-01-11T03:42:35.525Z,84.51
2023-01-11T03:45:04.540Z,85.34
2023-01-11T03:47:34.326Z,84.88
2023-01-11T03:50:11.338Z,85.00
2023-01-11T03:52:42.857Z,85.49
2023-01-11T03:55:15.387Z,85.15
2023-01-11T03:57:51.560Z,85.44
2023-01-11T04:00:24.863Z,84.78
2023-01-11T04:02:54.337Z,85.09
2023-01-11T04:05:22.266Z,84.80
2023-01-11T04:07:50.267Z,84.17
2023-01-11T04:10:18.194Z,84.11
2023-01-11T04:12:48.269Z,84.89
2023-01-11T04:15:17.454Z,85.00
2023-01-11T04:17:45.623Z,85.09
2023-01-11T04:20:14.112Z,84.86
2023-01-11T04:22:42.057Z,85.19
2023-01-11T04:25:10.328Z,85.00
2023-01-11T04:27:38.234Z,85.70
2023-01-11T04:30:06.680Z,84.95
2023-01-11T04:32:34.530Z,85.26
2023-01-11T04:35:02.576Z,85.36
2023-01-11T04:37:30.708Z,85.01
2023-01-11T04:39:58.684Z,84.73
2023-01-11T04:42:27.009Z,84.58
2023-01-11T04:44:55.015Z,84.48
2023-01-11T04:47:24.909Z,84.79
2023-01-11T04:49:53.215Z,84.76
2023-01-11T04:52:21.390Z,84.16
2023-01-11T04:54:52.729Z,84.76
2023-01-11T04:57:21.103Z,84.38
2023-01-11T04:59:49.404Z,84.16
2023-01-11T05:02:17.940Z,84.52
2023-01-11T05:04:45.917Z,84.87
2023-01-11T05:07:13.944Z,84.28
2023-01-11T05:09:41.817Z,84.08
2023-01-11T05:12:09.747Z,83.89
2023-01-11T05:14:37.787Z,84.77
2023-01-11T05:17:05.640Z,84.90
2023-01-11T05:19:33.646Z,85.07
2023-01-11T05:22:01.526Z,84.71
2023-01-11T05:24:29.543Z,84.56
2023-01-11T05:26:57.472Z,84.10
2023-01-11T05:29:25.488Z,84.37
2023-01-11T05:31:53.551Z,84.89
2023-01-11T05:34:21.593Z,84.47
2023-01-11T05:36:49.642Z,84.83
2023-01-11T05:39:17.551Z,84.51
2023-01-11T05:41:45.525Z,84.43
2023-01-11T05:44:34.764Z,84.71
2023-01-11T05:47:02.942Z,84.87
2023-01-11T05:49:31.113Z,84.90
2023-01-11T05:51:59.148Z,84.62
2023-01-11T05:54:27.098Z,84.80
2023-01-11T05:56:57.833Z,85.18
2023-01-11T05:59:27.069Z,84.98
2023-01-11T06:01:55.149Z,85.44
2023-01-11T06:04:23.078Z,85.52
2023-01-11T06:06:51.380Z,85.20
2023-01-11T06:09:19.258Z,85.59
2023-01-11T06:11:47.407Z,85.14
2023-01-11T06:14:15.277Z,84.56
2023-01-11T06:16:43.203Z,85.05
2023-01-11T06:19:11.701Z,84.62
2023-01-11T06:21:40.143Z,84.31
2023-01-11T06:24:08.092Z,84.31
2023-01-11T06:26:36.333Z,84.25
2023-01-11T06:29:04.311Z,84.32
2023-01-11T06:31:32.239Z,83.79
2023-01-11T06:34:00.103Z,84.02
2023-01-11T06:36:29.776Z,83.70
2023-01-11T06:38:58.155Z,83.04
2023-01-11T06:41:26.060Z,83.10
2023-01-11T06:43:54.403Z,83.73
2023-01-11T06:46:22.634Z,83.59
2023-01-11T06:48:50.714Z,83.38
2023-01-11T06:51:18.608Z,83.76
2023-01-11T06:53:46.797Z,84.03
2023-01-11T06:56:19.141Z,84.37
2023-01-11T06:58:48.515Z,84.76
2023-01-11T07:01:18.406Z,84.29
2023-01-11T07:03:46.883Z,84.38
2023-01-11T07:06:14.919Z,84.47
2023-01-11T07:08:42.943Z,84.00
2023-01-11T07:11:11.145Z,84.19
2023-01-11T07:13:39.130Z,83.40
2023-01-11T07:16:07.458Z,82.35
2023-01-11T07:18:35.432Z,82.08
2023-01-11T07:21:03.610Z,81.44
2023-01-11T07:23:31.569Z,81.25
2023-01-11T07:25:59.969Z,80.73
2023-01-11T07:28:28.691Z,80.60
2023-01-11T07:30:59.352Z,80.58
2023-01-11T07:33:28.260Z,80.48
2023-01-11T07:35:56.510Z,80.47
2023-01-11T07:38:24.507Z,80.37
2023-01-11T07:40:54.727Z,79.04
2023-01-11T07:43:23.686Z,79.33
2023-01-11T07:45:53.175Z,79.29
2023-01-11T07:48:26.619Z,77.89
2023-01-11T07:50:55.303Z,74.44
2023-01-11T07:53:26.179Z,74.46
2023-01-11T07:55:57.334Z,73.35
2023-01-11T07:58:25.374Z,68.62
2023-01-11T08:00:53.490Z,66.93
2023-01-11T08:03:21.798Z,65.87
2023-01-11T08:05:51.914Z,61.92
2023-01-11T08:08:20.286Z,60.94
2023-01-11T08:11:09.109Z,59.58
2023-01-11T08:13:55.929Z,60.13
2023-01-11T08:16:23.961Z,59.25
2023-01-11T08:18:53.179Z,58.70
2023-01-11T08:21:24.443Z,62.77
2023-01-11T08:23:59.498Z,65.04
2023-01-11T08:26:28.027Z,64.78
2023-01-11T08:28:56.114Z,64.62
2023-01-11T08:31:24.915Z,64.54
2023-01-11T08:33:53.230Z,65.63
2023-01-11T08:36:21.834Z,63.28
2023-01-11T08:38:49.928Z,64.23
2023-01-11T08:41:17.831Z,63.97
2023-01-11T08:43:46.262Z,62.23
2023-01-11T08:46:14.328Z,61.25
2023-01-11T08:48:43.059Z,62.91
2023-01-11T08:51:11.091Z,62.94
2023-01-11T08:53:39.023Z,62.47
2023-01-11T08:56:07.661Z,62.58
2023-01-11T08:58:36.235Z,63.14
2023-01-11T09:01:08.330Z,63.24
2023-01-11T09:03:36.567Z,62.96
2023-01-11T09:06:04.924Z,62.58
2023-01-11T09:08:32.844Z,62.07
2023-01-11T09:11:01.184Z,63.42
2023-01-11T09:13:29.155Z,65.25
2023-01-11T09:15:58.425Z,65.06
2023-01-11T09:18:27.369Z,65.17
2023-01-11T09:20:55.542Z,66.43
2023-01-11T09:23:23.555Z,65.89
2023-01-11T09:25:51.650Z,64.50
2023-01-11T09:28:19.893Z,64.60
2023-01-11T09:30:47.779Z,64.82
2023-01-11T09:33:15.868Z,65.13
2023-01-11T09:35:46.386Z,64.66
2023-01-11T09:38:14.626Z,65.20
2023-01-11T09:41:08.494Z,65.27
2023-01-11T09:43:46.052Z,66.49
2023-01-11T09:46:15.607Z,65.80
2023-01-11T09:48:48.579Z,68.47
2023-01-11T09:51:19.385Z,68.53
2023-01-11T09:53:54.108Z,67.77
2023-01-11T09:56:25.875Z,66.56
2023-01-11T09:59:19.521Z,68.40
2023-01-11T10:01:53.973Z,67.50
2023-01-11T10:05:11.002Z,67.28
2023-01-11T10:18:34.071Z,69.22
2023-01-11T10:18:41.723Z,70.88
2023-01-11T10:20:24.989Z,70.13
2023-01-11T10:23:00.955Z,69.87
2023-01-11T10:25:39.175Z,68.93
2023-01-11T10:28:17.655Z,69.54
2023-01-11T10:31:08.809Z,70.51
2023-01-11T10:33:48.427Z,70.57
2023-01-11T10:37:07.872Z,69.67
2023-01-11T10:40:24.120Z,69.23
2023-01-11T10:43:03.648Z,68.78
2023-01-11T10:45:43.651Z,70.10
2023-01-11T10:48:38.518Z,69.65
2023-01-11T10:51:42.320Z,68.83
2023-01-11T10:54:18.401Z,67.93
2023-01-11T10:57:08.154Z,68.08
2023-01-11T10:59:36.862Z,67.15
2023-01-11T11:02:39.972Z,65.84
2023-01-11T11:05:48.013Z,66.05
2023-01-11T11:08:36.350Z,63.85
2023-01-11T11:11:14.331Z,60.39
2023-01-11T11:13:49.867Z,57.34
2023-01-11T11:16:23.688Z,56.55
2023-01-11T11:18:58.729Z,56.20
2023-01-11T11:21:35.775Z,54.99
2023-01-11T11:24:27.825Z,54.07
2023-01-11T11:27:03.551Z,53.25
2023-01-11T11:29:31.938Z,48.59
2023-01-11T11:32:01.493Z,48.32
2023-01-11T11:34:31.192Z,49.68
2023-01-11T11:37:00.713Z,51.05
2023-01-11T11:39:31.316Z,53.84
2023-01-11T11:42:18.887Z,56.26
2023-01-11T11:45:10.784Z,57.47
2023-01-11T11:47:38.934Z,58.47
2023-01-11T11:50:31.828Z,58.73
2023-01-11T11:53:07.349Z,61.25
2023-01-11T11:55:35.926Z,60.71
2023-01-11T11:58:08.769Z,62.29
2023-01-11T12:00:45.637Z,63.39
2023-01-11T12:03:26.315Z,62.68
2023-01-11T12:06:01.304Z,64.68
2023-01-11T12:08:32.593Z,64.34
2023-01-11T12:11:07.231Z,65.68
2023-01-11T12:13:42.580Z,64.73
2023-01-11T12:16:22.262Z,65.25
2023-01-11T12:18:50.252Z,65.29
2023-01-11T12:21:27.179Z,65.15
2023-01-11T12:24:17.418Z,65.18
2023-01-11T12:27:00.456Z,64.09
2023-01-11T12:29:45.276Z,64.66
2023-01-11T12:32:22.316Z,65.74
2023-01-11T12:35:06.714Z,64.37
2023-01-11T12:37:53.047Z,65.00
2023-01-11T12:40:27.135Z,64.99
2023-01-11T12:43:19.879Z,66.32
2023-01-11T12:45:57.296Z,65.22
2023-01-11T12:48:45.887Z,64.86
2023-01-11T12:51:31.835Z,63.60
2023-01-11T12:54:09.822Z,64.43
2023-01-11T12:57:15.410Z,65.00
2023-01-11T13:00:08.613Z,63.95
2023-01-11T13:03:04.666Z,63.52
2023-01-11T13:06:17.273Z,63.62
2023-01-11T13:09:03.912Z,64.53
2023-01-11T13:11:39.100Z,65.38
2023-01-11T13:14:25.072Z,66.09
2023-01-11T13:17:05.192Z,64.93
2023-01-11T13:19:57.853Z,65.82
2023-01-11T13:22:32.462Z,65.47
2023-01-11T13:25:05.885Z,65.86
2023-01-11T13:27:34.318Z,66.56
2023-01-11T13:30:03.128Z,67.03
2023-01-11T13:32:37.513Z,66.31
2023-01-11T13:35:09.747Z,67.27
2023-01-11T13:37:43.524Z,67.23
2023-01-11T13:40:29.335Z,68.17
2023-01-11T13:43:20.179Z,68.18
2023-01-11T13:46:04.462Z,68.23
2023-01-11T13:48:40.760Z,68.67
2023-01-11T13:51:23.671Z,67.03
2023-01-11T13:54:16.911Z,67.59
2023-01-11T13:56:58.562Z,67.41
2023-01-11T13:59:44.492Z,67.16
2023-01-11T14:02:39.572Z,67.63
2023-01-11T14:05:18.425Z,67.24
2023-01-11T14:08:01.136Z,66.70
2023-01-11T14:11:01.460Z,66.72
2023-01-11T14:14:18.510Z,67.32
2023-01-11T14:16:55.624Z,66.85
2023-01-11T14:19:31.468Z,67.25
2023-01-11T14:22:17.730Z,67.39
2023-01-11T14:25:07.478Z,67.41
2023-01-11T14:27:55.325Z,67.43
2023-01-11T14:31:01.304Z,67.26
2023-01-11T14:33:56.622Z,67.60
2023-01-11T14:37:06.405Z,66.88
2023-01-11T14:40:00.900Z,66.88
2023-01-11T14:43:03.318Z,66.99
2023-01-11T14:45:44.735Z,67.31
2023-01-11T14:48:31.010Z,67.36
2023-01-11T14:51:46.662Z,67.79
2023-01-11T14:54:22.943Z,67.77
2023-01-11T14:56:54.769Z,68.39
2023-01-11T14:59:33.280Z,68.05
2023-01-11T15:02:04.271Z,69.43
2023-01-11T15:05:04.936Z,70.23
2023-01-11T15:07:33.561Z,70.38
2023-01-11T15:10:04.792Z,70.31
2023-01-11T15:12:37.589Z,70.05
2023-01-11T15:15:07.813Z,70.02
2023-01-11T15:17:54.260Z,69.74
2023-01-11T15:20:25.145Z,70.11
2023-01-11T15:23:01.894Z,70.88
2023-01-11T15:25:33.845Z,71.09
2023-01-11T15:28:31.137Z,70.72
2023-01-11T15:30:59.440Z,71.50
2023-01-11T15:33:28.578Z,71.16
2023-01-11T15:35:56.825Z,71.18
2023-01-11T15:38:49.796Z,70.53
2023-01-11T15:41:39.835Z,70.97
2023-01-11T15:44:41.308Z,71.72
2023-01-11T15:47:18.234Z,71.21
2023-01-11T15:50:13.301Z,71.79
2023-01-11T15:53:00.367Z,70.99
2023-01-11T15:55:41.818Z,71.09
2023-01-11T15:58:28.770Z,71.59
2023-01-11T16:01:12.752Z,71.70
2023-01-11T16:04:11.767Z,72.65
2023-01-11T16:06:58.359Z,72.89
2023-01-11T16:09:51.505Z,72.51
2023-01-11T16:12:48.989Z,72.73
2023-01-11T16:15:19.937Z,72.48
2023-01-11T16:17:48.518Z,72.60
2023-01-11T16:20:19.669Z,72.95
2023-01-11T16:22:58.470Z,72.98
2023-01-11T16:25:30.952Z,73.03
2023-01-11T16:28:00.677Z,73.18
2023-01-11T16:30:29.703Z,73.93
2023-01-11T16:33:31.986Z,73.31
2023-01-11T16:36:21.564Z,73.53
2023-01-11T16:39:07.452Z,74.64
2023-01-11T16:41:51.841Z,74.15
2023-01-11T16:44:45.930Z,74.09
2023-01-11T16:47:17.088Z,74.30
2023-01-11T16:49:49.580Z,74.83
2023-01-11T16:52:35.173Z,75.06
2023-01-11T16:55:30.455Z,75.69
2023-01-11T16:58:02.684Z,76.48
2023-01-11T17:00:36.491Z,76.52
2023-01-11T17:03:19.434Z,76.97
2023-01-11T17:06:08.296Z,77.16
2023-01-11T17:08:38.950Z,77.02
2023-01-11T17:11:44.904Z,77.08
2023-01-11T17:14:19.022Z,77.23
2023-01-11T17:16:54.370Z,77.34
2023-01-11T17:19:26.993Z,77.49
2023-01-11T17:22:03.707Z,77.49
2023-01-11T17:24:41.574Z,77.42
2023-01-11T17:27:20.204Z,77.98
2023-01-11T17:29:52.367Z,77.72
2023-01-11T17:32:41.718Z,78.13
2023-01-11T17:35:22.713Z,77.92
2023-01-11T17:37:55.100Z,77.97
2023-01-11T17:40:38.694Z,77.66
2023-01-11T17:43:36.584Z,77.74
2023-01-11T17:46:06.667Z,78.01
2023-01-11T17:48:35.590Z,79.00
2023-01-11T17:51:06.256Z,78.35
2023-01-11T17:53:36.455Z,78.59
2023-01-11T17:56:32.094Z,79.05
2023-01-11T17:59:19.482Z,78.93
2023-01-11T18:01:52.942Z,79.31
2023-01-11T18:04:23.550Z,79.37
2023-01-11T18:06:55.957Z,80.10
2023-01-11T18:09:30.207Z,80.20
2023-01-11T18:12:33.104Z,80.48
2023-01-11T18:15:05.052Z,80.74
2023-01-11T18:17:35.304Z,80.43
2023-01-11T18:20:29.790Z,81.13
2023-01-11T18:23:04.718Z,80.69
2023-01-11T18:25:35.391Z,80.57
2023-01-11T18:28:21.299Z,80.55
2023-01-11T18:30:54.183Z,80.84
2023-01-11T18:33:25.414Z,81.04
2023-01-11T18:35:58.488Z,81.36
2023-01-11T18:38:36.432Z,81.69
2023-01-11T18:41:32.418Z,82.52
2023-01-11T18:44:01.779Z,82.26
2023-01-11T18:46:30.216Z,81.91
2023-01-11T18:48:58.699Z,81.46
2023-01-11T18:51:35.742Z,81.59
2023-01-11T18:54:04.455Z,81.18
2023-01-11T18:56:32.902Z,81.12
2023-01-11T18:59:01.218Z,81.37
2023-01-11T19:01:33.193Z,81.46
2023-01-11T19:04:04.080Z,82.10
2023-01-11T19:06:32.901Z,81.79
2023-01-11T19:09:02.035Z,81.57
2023-01-11T19:11:31.275Z,81.67
2023-01-11T19:13:59.456Z,81.60
2023-01-11T19:16:27.900Z,81.87
2023-01-11T19:18:56.284Z,82.22
2023-01-11T19:21:25.018Z,82.54
2023-01-11T19:23:53.533Z,82.56
2023-01-11T19:26:22.107Z,82.88
2023-01-11T19:28:50.659Z,83.12
2023-01-11T19:31:19.839Z,82.95
2023-01-11T19:33:48.416Z,82.98
2023-01-11T19:36:17.057Z,83.07
2023-01-11T19:38:45.391Z,83.38
2023-01-11T19:41:17.264Z,83.40
2023-01-11T19:43:45.891Z,83.31
2023-01-11T19:46:25.864Z,82.69
2023-01-11T19:49:00.296Z,82.30
2023-01-11T19:51:28.811Z,82.66
2023-01-11T19:53:57.031Z,82.53
2023-01-11T19:56:25.383Z,82.34
2023-01-11T19:58:54.125Z,82.38
2023-01-11T20:01:22.749Z,82.40
2023-01-11T20:03:51.197Z,82.35
2023-01-11T20:06:19.617Z,81.87
2023-01-11T20:08:48.139Z,81.85
2023-01-11T20:11:16.739Z,82.32
2023-01-11T20:13:50.937Z,81.88
2023-01-11T20:16:22.734Z,81.86
2023-01-11T20:18:56.440Z,81.42
2023-01-11T20:21:27.882Z,81.94
2023-01-11T20:23:59.244Z,81.76
2023-01-11T20:26:30.871Z,82.01
2023-01-11T20:29:00.830Z,81.62
2023-01-11T20:31:32.547Z,81.98
2023-01-11T20:34:14.977Z,81.89
2023-01-11T20:36:44.634Z,82.14
2023-01-11T20:39:13.124Z,82.58
2023-01-11T20:41:47.609Z,82.45
2023-01-11T20:44:32.255Z,82.76
2023-01-11T20:47:01.852Z,82.49
2023-01-11T20:49:30.679Z,82.20
2023-01-11T20:51:59.195Z,81.92
2023-01-11T20:54:27.964Z,82.23
2023-01-11T20:57:01.494Z,82.25
2023-01-11T20:59:32.615Z,81.77
2023-01-11T21:02:00.909Z,81.85
2023-01-11T21:04:29.498Z,81.82
2023-01-11T21:06:58.099Z,82.34
2023-01-11T21:09:26.421Z,81.62
2023-01-11T21:11:54.937Z,81.66
2023-01-11T21:14:23.498Z,81.37
2023-01-11T21:16:55.303Z,81.28
2023-01-11T21:19:23.447Z,81.71
2023-01-11T21:21:54.054Z,81.53
2023-01-11T21:24:22.652Z,81.91
2023-01-11T21:29:33.771Z,81.42
2023-01-11T21:32:06.458Z,81.38
2023-01-11T21:34:34.631Z,81.54
2023-01-11T21:37:02.525Z,81.66
2023-01-11T21:39:31.781Z,80.54
2023-01-11T21:42:00.022Z,80.28
2023-01-11T21:44:35.144Z,80.76
2023-01-11T21:47:05.909Z,80.80
2023-01-11T21:49:35.159Z,80.61
2023-01-11T21:52:05.462Z,79.74
2023-01-11T21:54:33.397Z,80.06
2023-01-11T21:57:01.267Z,80.52
2023-01-11T21:59:30.293Z,80.68
2023-01-11T22:01:58.362Z,80.27
2023-01-11T22:04:26.335Z,80.32
2023-01-11T22:06:55.511Z,80.22
2023-01-11T22:09:28.519Z,80.85
2023-01-11T22:11:56.303Z,80.38
2023-01-11T22:14:24.335Z,80.39
2023-01-11T22:16:53.436Z,80.32
2023-01-11T22:19:21.318Z,80.33
2023-01-11T22:21:49.245Z,79.90
2023-01-11T22:24:18.098Z,79.65
2023-01-11T22:26:46.383Z,79.54
2023-01-11T22:29:17.138Z,79.56
2023-01-11T22:31:55.177Z,80.14
2023-01-11T22:34:23.724Z,80.40
2023-01-11T22:38:55.695Z,80.45
2023-01-11T22:41:28.010Z,80.81
2023-01-11T22:43:55.913Z,80.45
2023-01-11T22:46:26.326Z,81.37
2023-01-11T22:48:54.243Z,81.02
2023-01-11T22:51:25.144Z,81.58
2023-01-11T22:53:54.709Z,81.73
2023-01-11T22:56:25.901Z,81.55
2023-01-11T22:58:54.884Z,81.82
2023-01-11T23:01:26.608Z,81.36
2023-01-11T23:03:56.152Z,81.83
2023-01-11T23:06:28.890Z,81.93
2023-01-11T23:08:57.471Z,82.54
2023-01-11T23:11:56.177Z,82.33
2023-01-11T23:14:29.743Z,82.43
2023-01-11T23:17:19.350Z,81.99
2023-01-11T23:19:47.369Z,82.06
2023-01-11T23:22:16.010Z,82.02
2023-01-11T23:24:44.033Z,81.98
2023-01-11T23:27:12.417Z,82.21
2023-01-11T23:29:40.266Z,82.70
2023-01-11T23:32:08.659Z,82.25
2023-01-11T23:34:36.501Z,82.71
2023-01-11T23:37:05.375Z,82.92
2023-01-11T23:39:33.428Z,82.82
2023-01-11T23:42:20.203Z,83.40
2023-01-11T23:44:48.241Z,82.41
2023-01-11T23:47:22.404Z,82.44
2023-01-11T23:49:53.590Z,82.03
2023-01-11T23:52:25.109Z,81.86
2023-01-11T23:54:53.328Z,82.43
2023-01-11T23:57:22.253Z,81.93
2023-01-11T23:59:50.404Z,82.20
